createdAt,value
2022-11-24T00:00:52.614Z,4.00
2022-11-24T00:03:19.402Z,4.50
2022-11-24T00:05:45.844Z,3.40
2022-11-24T00:08:12.682Z,4.30
2022-11-24T00:10:39.017Z,3.90
2022-11-24T00:13:05.392Z,3.60
2022-11-24T00:15:31.727Z,3.73
2022-11-24T00:17:58.100Z,4.00
2022-11-24T00:20:24.439Z,3.83
2022-11-24T00:22:50.813Z,3.30
2022-11-24T00:25:17.128Z,3.57
2022-11-24T00:27:43.478Z,3.00
2022-11-24T00:30:10.188Z,3.60
2022-11-24T00:32:36.598Z,3.00
2022-11-24T00:35:03.087Z,3.53
2022-11-24T00:37:29.844Z,4.10
2022-11-24T00:39:56.212Z,3.27
2022-11-24T00:42:22.548Z,3.50
2022-11-24T00:44:48.913Z,3.37
2022-11-24T00:47:15.290Z,3.33
2022-11-24T00:49:41.690Z,3.03
2022-11-24T00:52:08.005Z,3.83
2022-11-24T00:54:34.737Z,3.90
2022-11-24T00:57:01.261Z,3.23
2022-11-24T00:59:27.617Z,3.77
2022-11-24T01:01:54.010Z,3.80
2022-11-24T01:04:20.386Z,3.40
2022-11-24T01:06:46.717Z,3.57
2022-11-24T01:09:13.335Z,3.50
2022-11-24T01:11:58.182Z,4.20
2022-11-24T01:14:25.345Z,3.80
2022-11-24T01:16:52.069Z,3.50
2022-11-24T01:19:18.480Z,4.47
2022-11-24T01:21:45.287Z,3.73
2022-11-24T01:24:12.059Z,3.10
2022-11-24T01:26:39.061Z,4.40
2022-11-24T01:29:05.604Z,4.00
2022-11-24T01:31:32.768Z,3.50
2022-11-24T01:33:59.279Z,4.63
2022-11-24T01:36:25.626Z,3.60
2022-11-24T01:38:52.118Z,3.53
2022-11-24T01:41:21.433Z,3.50
2022-11-24T01:43:49.286Z,3.37
2022-11-24T01:46:33.999Z,4.13
2022-11-24T01:49:06.405Z,3.40
2022-11-24T01:51:37.099Z,3.90
2022-11-24T01:54:11.399Z,3.50
2022-11-24T01:56:41.954Z,3.90
2022-11-24T01:59:12.476Z,4.37
2022-11-24T02:01:39.060Z,3.83
2022-11-24T02:04:10.922Z,4.57
2022-11-24T02:06:40.726Z,3.90
2022-11-24T02:09:16.360Z,3.40
2022-11-24T02:11:44.416Z,3.40
2022-11-24T02:14:15.874Z,3.07
2022-11-24T02:16:48.039Z,3.37
2022-11-24T02:19:31.708Z,4.30
2022-11-24T02:21:58.409Z,3.73
2022-11-24T02:24:45.391Z,3.90
2022-11-24T02:27:11.783Z,3.60
2022-11-24T02:29:38.507Z,3.90
2022-11-24T02:32:07.466Z,4.10
2022-11-24T02:34:34.361Z,3.90
2022-11-24T02:37:00.955Z,4.17
2022-11-24T02:39:27.312Z,3.80
2022-11-24T02:42:00.817Z,3.80
2022-11-24T02:44:33.172Z,4.37
2022-11-24T02:47:05.140Z,3.50
2022-11-24T02:49:31.512Z,4.07
2022-11-24T02:51:58.347Z,4.50
2022-11-24T02:54:24.794Z,4.23
2022-11-24T02:56:51.301Z,4.20
2022-11-24T02:59:17.694Z,4.13
2022-11-24T03:01:44.043Z,4.40
2022-11-24T03:04:10.915Z,4.23
2022-11-24T03:06:37.941Z,3.63
2022-11-24T03:09:04.845Z,3.90
2022-11-24T03:11:31.232Z,4.50
2022-11-24T03:13:57.619Z,4.20
2022-11-24T03:16:24.013Z,3.70
2022-11-24T03:18:53.750Z,4.23
2022-11-24T03:21:20.454Z,3.80
2022-11-24T03:23:46.819Z,4.30
2022-11-24T03:26:16.098Z,4.17
2022-11-24T03:28:42.553Z,4.37
2022-11-24T03:31:09.882Z,4.90
2022-11-24T03:33:37.107Z,4.97
2022-11-24T03:36:05.055Z,5.60
2022-11-24T03:38:31.421Z,5.23
2022-11-24T03:40:57.797Z,4.40
2022-11-24T03:43:24.163Z,4.33
2022-11-24T03:45:51.028Z,4.43
2022-11-24T03:48:21.063Z,5.10
2022-11-24T03:50:59.102Z,4.83
2022-11-24T03:53:28.343Z,3.93
2022-11-24T03:55:55.376Z,5.60
2022-11-24T03:58:22.197Z,5.13
2022-11-24T04:00:49.320Z,5.40
2022-11-24T04:03:15.808Z,5.80
2022-11-24T04:05:42.635Z,5.20
2022-11-24T04:08:08.962Z,5.57
2022-11-24T04:10:37.031Z,5.07
2022-11-24T04:13:15.024Z,4.63
2022-11-24T04:15:42.801Z,5.03
2022-11-24T04:18:10.865Z,5.70
2022-11-24T04:20:37.750Z,4.70
2022-11-24T04:23:04.887Z,4.60
2022-11-24T04:25:31.723Z,4.90
2022-11-24T04:27:58.178Z,4.70
2022-11-24T04:30:26.452Z,4.50
2022-11-24T04:32:52.951Z,4.83
2022-11-24T04:35:19.953Z,5.27
2022-11-24T04:37:46.879Z,4.20
2022-11-24T04:40:14.087Z,4.40
2022-11-24T04:42:40.451Z,5.47
2022-11-24T04:45:07.663Z,4.37
2022-11-24T04:47:34.399Z,4.63
2022-11-24T04:50:00.800Z,6.17
2022-11-24T04:52:27.295Z,5.10
2022-11-24T04:54:53.806Z,4.60
2022-11-24T04:57:25.337Z,4.73
2022-11-24T04:59:52.966Z,5.30
2022-11-24T05:02:20.089Z,6.13
2022-11-24T05:04:47.086Z,4.97
2022-11-24T05:07:18.297Z,5.83
2022-11-24T05:10:04.959Z,5.70
2022-11-24T05:12:31.611Z,5.10
2022-11-24T05:14:59.288Z,5.60
2022-11-24T05:17:30.671Z,5.47
2022-11-24T05:19:57.545Z,4.90
2022-11-24T05:22:24.617Z,5.07
2022-11-24T05:24:51.553Z,5.33
2022-11-24T05:27:17.916Z,5.90
2022-11-24T05:29:44.330Z,6.03
2022-11-24T05:32:10.648Z,9.40
2022-11-24T05:34:37.794Z,9.47
2022-11-24T05:37:04.368Z,9.67
2022-11-24T05:39:35.634Z,10.50
2022-11-24T05:42:22.855Z,6.53
2022-11-24T05:44:49.254Z,5.73
2022-11-24T05:47:15.586Z,5.63
2022-11-24T05:49:42.102Z,5.40
2022-11-24T05:52:08.530Z,5.17
2022-11-24T05:54:35.135Z,6.00
2022-11-24T05:57:01.584Z,6.53
2022-11-24T05:59:27.964Z,6.23
2022-11-24T06:01:54.375Z,7.10
2022-11-24T06:04:20.813Z,6.23
2022-11-24T06:06:47.308Z,5.53
2022-11-24T06:09:14.118Z,6.37
2022-11-24T06:11:40.458Z,5.43
2022-11-24T06:14:10.922Z,5.90
2022-11-24T06:16:37.803Z,5.37
2022-11-24T06:19:04.214Z,6.20
2022-11-24T06:21:30.811Z,6.57
2022-11-24T06:23:57.630Z,5.50
2022-11-24T06:26:23.983Z,6.03
2022-11-24T06:28:50.307Z,6.87
2022-11-24T06:31:16.776Z,5.87
2022-11-24T06:33:43.119Z,7.33
2022-11-24T06:36:13.310Z,6.40
2022-11-24T06:38:39.670Z,7.17
2022-11-24T06:41:09.846Z,6.63
2022-11-24T06:43:37.009Z,6.23
2022-11-24T06:46:03.854Z,11.80
2022-11-24T06:48:30.751Z,8.67
2022-11-24T06:51:01.629Z,8.80
2022-11-24T06:53:38.499Z,7.00
2022-11-24T06:56:16.236Z,8.07
2022-11-24T06:58:45.651Z,7.13
2022-11-24T07:01:17.347Z,6.97
2022-11-24T07:03:44.039Z,7.20
2022-11-24T07:06:10.471Z,7.53
2022-11-24T07:08:36.935Z,6.33
2022-11-24T07:11:07.914Z,7.20
2022-11-24T07:13:34.351Z,7.50
2022-11-24T07:16:09.540Z,7.03
2022-11-24T07:18:35.946Z,7.30
2022-11-24T07:21:04.848Z,7.70
2022-11-24T07:23:31.183Z,7.07
2022-11-24T07:26:00.182Z,6.20
2022-11-24T07:28:30.526Z,5.70
2022-11-24T07:30:57.109Z,6.80
2022-11-24T07:33:27.932Z,7.03
2022-11-24T07:35:54.890Z,6.70
2022-11-24T07:38:21.241Z,6.93
2022-11-24T07:40:47.602Z,7.70
2022-11-24T07:43:19.839Z,7.10
2022-11-24T07:45:52.599Z,6.30
2022-11-24T07:48:18.995Z,7.03
2022-11-24T07:50:45.472Z,7.30
2022-11-24T07:53:11.802Z,7.37
2022-11-24T07:55:38.217Z,8.27
2022-11-24T07:58:04.581Z,7.57
2022-11-24T08:00:31.000Z,8.50
2022-11-24T08:02:57.327Z,8.40
2022-11-24T08:05:24.079Z,8.00
2022-11-24T08:07:50.610Z,8.20
2022-11-24T08:10:17.870Z,6.67
2022-11-24T08:12:44.296Z,9.00
2022-11-24T08:15:11.495Z,6.87
2022-11-24T08:17:37.952Z,6.80
2022-11-24T08:20:04.815Z,5.93
2022-11-24T08:22:31.138Z,6.93
2022-11-24T08:24:57.592Z,7.37
2022-11-24T08:27:23.913Z,6.80
2022-11-24T08:29:50.265Z,5.83
2022-11-24T08:32:22.020Z,7.07
2022-11-24T08:34:48.936Z,6.33
2022-11-24T08:37:15.274Z,6.57
2022-11-24T08:39:41.595Z,6.50
2022-11-24T08:42:08.008Z,5.33
2022-11-24T08:44:34.584Z,7.73
2022-11-24T08:47:01.058Z,6.70
2022-11-24T08:49:27.547Z,6.20
2022-11-24T08:51:53.930Z,5.63
2022-11-24T08:54:21.427Z,6.10
2022-11-24T08:56:49.447Z,6.43
2022-11-24T08:59:15.900Z,5.53
2022-11-24T09:01:42.352Z,5.70
2022-11-24T09:04:08.871Z,5.67
2022-11-24T09:06:35.261Z,6.43
2022-11-24T09:09:01.925Z,5.50
2022-11-24T09:11:28.618Z,5.70
2022-11-24T09:13:55.537Z,5.20
2022-11-24T09:16:25.865Z,6.30
2022-11-24T09:19:00.509Z,6.17
2022-11-24T09:21:26.930Z,5.53
2022-11-24T09:23:54.571Z,5.40
2022-11-24T09:26:23.507Z,5.10
2022-11-24T09:28:54.440Z,5.40
2022-11-24T09:31:23.826Z,4.57
2022-11-24T09:33:50.921Z,5.40
2022-11-24T09:36:17.286Z,5.30
2022-11-24T09:38:43.627Z,4.67
2022-11-24T09:41:31.268Z,5.80
2022-11-24T09:44:35.060Z,5.17
2022-11-24T09:47:23.339Z,5.90
2022-11-24T09:49:56.355Z,5.00
2022-11-24T09:52:40.377Z,5.67
2022-11-24T09:55:35.259Z,5.00
2022-11-24T09:58:31.163Z,5.03
2022-11-24T10:00:58.776Z,5.00
2022-11-24T10:03:46.442Z,4.87
2022-11-24T10:06:40.525Z,5.10
2022-11-24T10:09:18.817Z,6.03
2022-11-24T10:11:57.486Z,5.20
2022-11-24T10:14:52.257Z,4.27
2022-11-24T10:17:33.213Z,4.97
2022-11-24T10:20:27.925Z,4.17
2022-11-24T10:23:20.299Z,4.20
2022-11-24T10:26:00.666Z,5.20
2022-11-24T10:28:48.771Z,4.50
2022-11-24T10:31:23.870Z,5.23
2022-11-24T10:33:51.156Z,4.70
2022-11-24T10:36:29.830Z,4.50
2022-11-24T10:39:05.921Z,5.50
2022-11-24T10:41:58.779Z,5.80
2022-11-24T10:44:25.216Z,5.13
2022-11-24T10:46:52.395Z,5.97
2022-11-24T10:49:24.699Z,5.10
2022-11-24T10:52:05.871Z,4.97
2022-11-24T10:54:33.032Z,5.60
2022-11-24T10:56:59.483Z,5.90
2022-11-24T10:59:33.569Z,5.00
2022-11-24T11:02:00.635Z,4.43
2022-11-24T11:04:31.812Z,5.10
2022-11-24T11:07:18.839Z,5.47
2022-11-24T11:09:45.951Z,5.30
2022-11-24T11:15:29.774Z,4.80
2022-11-24T11:17:59.312Z,5.10
2022-11-24T11:20:33.764Z,5.27
2022-11-24T11:23:13.314Z,4.97
2022-11-24T11:25:41.068Z,5.90
2022-11-24T11:28:23.985Z,4.97
2022-11-24T11:31:20.384Z,4.73
2022-11-24T11:34:05.490Z,4.50
2022-11-24T11:36:38.166Z,5.33
2022-11-24T11:39:05.450Z,5.57
2022-11-24T11:41:40.748Z,5.53
2022-11-24T11:44:41.007Z,5.53
2022-11-24T11:47:23.486Z,5.03
2022-11-24T11:49:50.301Z,5.67
2022-11-24T11:52:35.497Z,5.23
2022-11-24T11:55:36.883Z,5.60
2022-11-24T11:58:22.024Z,5.17
2022-11-24T12:01:14.594Z,5.57
2022-11-24T12:04:00.962Z,5.10
2022-11-24T12:06:59.656Z,5.37
2022-11-24T12:09:42.877Z,4.53
2022-11-24T12:12:25.411Z,5.33
2022-11-24T12:15:10.973Z,4.83
2022-11-24T12:17:49.366Z,5.03
2022-11-24T12:20:32.926Z,4.97
2022-11-24T12:23:23.976Z,6.10
2022-11-24T12:25:59.162Z,5.23
2022-11-24T12:28:41.216Z,5.73
2022-11-24T12:31:36.425Z,5.37
2022-11-24T12:34:08.464Z,6.30
2022-11-24T12:37:07.899Z,5.23
2022-11-24T12:39:44.052Z,5.27
2022-11-24T12:42:44.050Z,6.47
2022-11-24T12:45:18.218Z,5.30
2022-11-24T12:48:12.278Z,5.10
2022-11-24T12:50:42.215Z,5.47
2022-11-24T12:53:16.878Z,6.30
2022-11-24T12:55:44.218Z,5.13
2022-11-24T12:58:25.747Z,5.60
2022-11-24T13:01:18.913Z,7.10
2022-11-24T13:04:12.387Z,6.83
2022-11-24T13:06:51.801Z,6.30
2022-11-24T13:09:18.472Z,5.63
2022-11-24T13:11:46.971Z,6.23
2022-11-24T13:14:28.598Z,7.30
2022-11-24T13:19:44.201Z,5.00
2022-11-24T13:22:16.048Z,5.53
2022-11-24T13:24:44.755Z,5.70
2022-11-24T13:27:14.166Z,6.83
2022-11-24T13:29:48.444Z,5.53
2022-11-24T13:32:14.791Z,5.97
2022-11-24T13:34:45.473Z,4.87
2022-11-24T13:37:26.868Z,5.30
2022-11-24T13:40:00.639Z,6.17
2022-11-24T13:42:41.049Z,5.23
2022-11-24T13:45:39.706Z,5.60
2022-11-24T13:48:22.321Z,5.47
2022-11-24T13:50:55.842Z,5.23
2022-11-24T13:53:27.169Z,5.03
2022-11-24T13:56:08.762Z,6.33
2022-11-24T13:58:40.451Z,6.10
2022-11-24T14:01:25.135Z,5.40
2022-11-24T14:06:52.036Z,5.57
2022-11-24T14:09:26.675Z,5.97
2022-11-24T14:12:25.995Z,6.07
2022-11-24T14:14:55.624Z,5.00
2022-11-24T14:17:28.082Z,5.13
2022-11-24T14:19:56.203Z,5.17
2022-11-24T14:22:36.622Z,4.83
2022-11-24T14:25:03.976Z,5.40
2022-11-24T14:27:33.459Z,5.10
2022-11-24T14:30:19.462Z,6.57
2022-11-24T14:32:59.337Z,4.73
2022-11-24T14:35:34.051Z,4.60
2022-11-24T14:38:05.355Z,4.80
2022-11-24T14:40:39.822Z,5.37
2022-11-24T14:43:18.135Z,5.20
2022-11-24T14:45:53.751Z,4.07
2022-11-24T14:48:25.338Z,5.33
2022-11-24T14:50:51.927Z,4.70
2022-11-24T14:53:26.192Z,5.00
2022-11-24T14:56:48.276Z,4.77
2022-11-24T14:59:23.507Z,4.40
2022-11-24T15:01:50.371Z,4.53
2022-11-24T15:04:46.740Z,4.80
2022-11-24T15:07:25.877Z,5.10
2022-11-24T15:09:59.681Z,5.50
2022-11-24T15:12:34.310Z,5.33
2022-11-24T15:15:04.392Z,5.00
2022-11-24T15:17:31.266Z,5.13
2022-11-24T15:20:02.042Z,5.30
2022-11-24T15:22:36.694Z,6.47
2022-11-24T15:25:03.981Z,5.90
2022-11-24T15:27:30.363Z,5.47
2022-11-24T15:29:56.696Z,6.13
2022-11-24T15:32:23.129Z,6.47
2022-11-24T15:34:49.449Z,6.07
2022-11-24T15:37:15.814Z,5.43
2022-11-24T15:39:42.159Z,5.00
2022-11-24T15:42:11.915Z,6.23
2022-11-24T15:44:38.239Z,5.60
2022-11-24T15:47:04.666Z,5.60
2022-11-24T15:49:31.102Z,6.33
2022-11-24T15:51:57.493Z,5.80
2022-11-24T15:54:24.714Z,5.73
2022-11-24T15:56:51.163Z,6.20
2022-11-24T15:59:20.590Z,6.10
2022-11-24T16:01:49.876Z,5.90
2022-11-24T16:04:16.552Z,5.50
2022-11-24T16:06:43.191Z,6.30
2022-11-24T16:09:14.842Z,5.50
2022-11-24T16:11:41.422Z,6.10
2022-11-24T16:14:07.810Z,6.00
2022-11-24T16:16:34.286Z,6.23
2022-11-24T16:19:00.703Z,5.47
2022-11-24T16:21:27.021Z,6.00
2022-11-24T16:23:53.854Z,6.10
2022-11-24T16:26:20.284Z,7.63
2022-11-24T16:28:47.081Z,7.10
2022-11-24T16:31:15.642Z,6.40
2022-11-24T16:33:44.594Z,5.80
2022-11-24T16:36:11.051Z,6.53
2022-11-24T16:38:38.938Z,5.40
2022-11-24T16:41:05.369Z,8.07
2022-11-24T16:43:31.796Z,6.77
2022-11-24T16:46:18.704Z,6.10
2022-11-24T16:48:46.952Z,6.17
2022-11-24T16:51:14.142Z,6.43
2022-11-24T16:53:40.987Z,5.10
2022-11-24T16:56:08.018Z,5.23
2022-11-24T16:58:37.921Z,6.57
2022-11-24T17:01:05.646Z,6.13
2022-11-24T17:03:38.821Z,6.90
2022-11-24T17:06:11.392Z,7.30
2022-11-24T17:08:39.909Z,6.07
2022-11-24T17:11:12.333Z,6.40
2022-11-24T17:13:39.235Z,6.27
2022-11-24T17:16:11.692Z,6.73
2022-11-24T17:18:39.256Z,7.00
2022-11-24T17:21:09.700Z,9.70
2022-11-24T17:23:36.848Z,6.73
2022-11-24T17:26:05.554Z,6.73
2022-11-24T17:28:32.038Z,6.20
2022-11-24T17:30:58.388Z,6.40
2022-11-24T17:33:24.799Z,6.90
2022-11-24T17:35:51.211Z,6.17
2022-11-24T17:38:17.963Z,7.03
2022-11-24T17:40:47.958Z,6.40
2022-11-24T17:43:14.954Z,7.17
2022-11-24T17:45:41.411Z,6.43
2022-11-24T17:48:08.441Z,7.73
2022-11-24T17:50:34.875Z,6.97
2022-11-24T17:53:01.253Z,7.23
2022-11-24T17:55:27.583Z,7.43
2022-11-24T17:57:53.942Z,7.07
2022-11-24T18:00:20.532Z,7.97
2022-11-24T18:02:46.962Z,7.90
2022-11-24T18:05:13.413Z,7.50
2022-11-24T18:07:39.853Z,7.43
2022-11-24T18:10:06.646Z,7.80
2022-11-24T18:12:33.035Z,6.53
2022-11-24T18:14:59.822Z,6.97
2022-11-24T18:17:26.456Z,7.47
2022-11-24T18:19:52.773Z,8.23
2022-11-24T18:22:23.679Z,6.73
2022-11-24T18:25:03.403Z,7.10
2022-11-24T18:27:29.802Z,6.90
2022-11-24T18:29:56.388Z,8.10
2022-11-24T18:32:22.774Z,7.20
2022-11-24T18:34:50.924Z,7.37
2022-11-24T18:37:17.291Z,7.03
2022-11-24T18:39:43.712Z,6.93
2022-11-24T18:42:10.371Z,7.93
2022-11-24T18:44:37.193Z,7.40
2022-11-24T18:47:04.327Z,7.77
2022-11-24T18:49:31.827Z,7.37
2022-11-24T18:51:58.814Z,6.77
2022-11-24T18:54:27.638Z,9.10
2022-11-24T18:56:55.797Z,7.57
2022-11-24T18:59:25.739Z,9.10
2022-11-24T19:01:52.252Z,10.67
2022-11-24T19:04:18.751Z,8.50
2022-11-24T19:06:45.123Z,10.30
2022-11-24T19:09:16.478Z,8.60
2022-11-24T19:11:44.285Z,9.87
2022-11-24T19:14:14.417Z,9.50
2022-11-24T19:16:40.964Z,10.00
2022-11-24T19:19:07.989Z,9.60
2022-11-24T19:21:37.191Z,8.50
2022-11-24T19:24:05.871Z,9.20
2022-11-24T19:26:35.363Z,7.60
2022-11-24T19:29:02.699Z,9.17
2022-11-24T19:31:29.118Z,8.03
2022-11-24T19:33:58.288Z,8.00
2022-11-24T19:36:25.942Z,8.33
2022-11-24T19:38:54.149Z,8.13
2022-11-24T19:41:22.109Z,8.97
2022-11-24T19:43:48.561Z,7.10
2022-11-24T19:46:18.600Z,8.67
2022-11-24T19:48:47.546Z,8.47
2022-11-24T19:51:19.014Z,9.57
2022-11-24T19:53:45.499Z,8.27
2022-11-24T19:56:21.247Z,8.40
2022-11-24T19:58:48.767Z,10.23
2022-11-24T20:01:20.541Z,9.13
2022-11-24T20:03:53.687Z,7.33
2022-11-24T20:06:20.017Z,7.10
2022-11-24T20:08:46.812Z,8.27
2022-11-24T20:11:15.875Z,7.80
2022-11-24T20:13:44.521Z,7.87
2022-11-24T20:16:13.361Z,8.33
2022-11-24T20:18:44.081Z,7.20
2022-11-24T20:21:17.433Z,7.27
2022-11-24T20:23:45.014Z,8.23
2022-11-24T20:26:19.388Z,9.13
2022-11-24T20:28:46.551Z,6.43
2022-11-24T20:31:19.191Z,7.50
2022-11-24T20:33:45.920Z,7.60
2022-11-24T20:36:25.013Z,7.70
2022-11-24T20:38:53.284Z,7.20
2022-11-24T20:41:25.801Z,9.33
2022-11-24T20:43:53.443Z,8.03
2022-11-24T20:46:25.440Z,8.60
2022-11-24T20:48:54.141Z,8.07
2022-11-24T20:51:22.597Z,8.67
2022-11-24T20:53:50.201Z,8.20
2022-11-24T20:56:22.013Z,7.83
2022-11-24T20:58:48.605Z,9.07
2022-11-24T21:01:29.812Z,9.10
2022-11-24T21:03:58.695Z,9.67
2022-11-24T21:06:26.274Z,8.10
2022-11-24T21:08:52.706Z,10.00
2022-11-24T21:11:20.553Z,10.73
2022-11-24T21:13:48.777Z,8.90
2022-11-24T21:16:25.599Z,10.20
2022-11-24T21:18:55.299Z,12.20
2022-11-24T21:21:23.583Z,10.50
2022-11-24T21:23:51.027Z,11.20
2022-11-24T21:26:18.509Z,10.43
2022-11-24T21:28:46.628Z,9.70
2022-11-24T21:31:15.766Z,8.63
2022-11-24T21:33:44.852Z,8.23
2022-11-24T21:36:12.592Z,8.33
2022-11-24T21:38:39.028Z,9.17
2022-11-24T21:41:08.143Z,8.57
2022-11-24T21:43:35.333Z,8.90
2022-11-24T21:46:07.018Z,10.20
2022-11-24T21:48:34.706Z,9.57
2022-11-24T21:51:02.895Z,9.10
2022-11-24T21:53:35.671Z,11.20
2022-11-24T21:56:13.792Z,10.83
2022-11-24T21:58:58.590Z,10.10
2022-11-24T22:01:28.063Z,9.23
2022-11-24T22:03:54.995Z,10.33
2022-11-24T22:06:21.745Z,9.40
2022-11-24T22:08:49.100Z,10.43
2022-11-24T22:11:18.370Z,10.60
2022-11-24T22:13:45.046Z,9.47
2022-11-24T22:16:16.895Z,9.50
2022-11-24T22:18:44.770Z,10.47
2022-11-24T22:21:14.087Z,9.83
2022-11-24T22:23:40.730Z,10.57
2022-11-24T22:26:19.304Z,9.30
2022-11-24T22:28:47.151Z,15.90
2022-11-24T22:31:15.188Z,12.43
2022-11-24T22:33:41.649Z,18.20
2022-11-24T22:36:08.506Z,13.83
2022-11-24T22:38:35.022Z,10.87
2022-11-24T22:41:06.365Z,11.17
2022-11-24T22:43:34.410Z,12.07
2022-11-24T22:46:05.877Z,11.20
2022-11-24T22:48:33.504Z,11.43
2022-11-24T22:51:08.715Z,12.57
2022-11-24T22:53:35.119Z,12.57
2022-11-24T22:56:06.507Z,10.40
2022-11-24T22:58:33.504Z,12.10
2022-11-24T23:01:07.167Z,11.73
2022-11-24T23:03:34.949Z,12.60
2022-11-24T23:06:03.176Z,11.73
2022-11-24T23:08:30.214Z,12.70
2022-11-24T23:11:04.171Z,9.10
2022-11-24T23:13:30.690Z,10.23
2022-11-24T23:16:05.871Z,10.23
2022-11-24T23:18:32.737Z,11.67
2022-11-24T23:21:11.718Z,11.03
2022-11-24T23:23:38.482Z,11.00
2022-11-24T23:26:07.536Z,12.17
2022-11-24T23:28:34.293Z,11.40
2022-11-24T23:31:05.775Z,12.10
2022-11-24T23:33:32.294Z,12.37
2022-11-24T23:36:03.950Z,11.63
2022-11-24T23:38:32.831Z,12.50
2022-11-24T23:41:01.101Z,10.93
2022-11-24T23:43:27.849Z,11.93
2022-11-24T23:45:54.310Z,11.80
2022-11-24T23:48:20.811Z,12.33
2022-11-24T23:50:47.143Z,10.83
2022-11-24T23:53:13.566Z,10.60
2022-11-24T23:55:39.907Z,9.73
2022-11-24T23:58:07.099Z,11.67
